Time;durP1;ratioP1;P1;durP2;ratioP2;P2;SDS_P1;SDS_P2;PMS_P1;PMS_P2;Temp;Humidity;BMP_temperature;BMP_pressure;BME280_temperature;BME280_humidity;BME280_pressure;Samples;Min_cycle;Max_cycle;Signal;HPM_P1;HPM_P2
2022/12/06 00:01:07;;;;;;;3.28;1.08;;;;;;;5.65;95.80;102099.31;4928258;29;20067;-41
2022/12/06 00:03:35;;;;;;;3.10;1.08;;;;;;;5.66;95.67;102099.06;4921539;29;20130;-42
2022/12/06 00:06:05;;;;;;;2.50;1.33;;;;;;;5.67;95.64;102108.09;4930017;29;20044;-41
2022/12/06 00:08:32;;;;;;;4.90;2.00;;;;;;;5.68;95.78;102101.50;4929334;29;20047;-45
2022/12/06 00:11:11;;;;;;;5.43;0.98;;;;;;;5.70;95.90;102099.28;4928745;29;20044;-45
2022/12/06 00:13:39;;;;;;;4.75;1.25;;;;;;;5.73;95.78;102104.22;4920768;29;20055;-43
2022/12/06 00:16:10;;;;;;;6.70;1.25;;;;;;;5.72;95.96;102103.41;4921755;29;20056;-46
2022/12/06 00:18:40;;;;;;;5.32;1.30;;;;;;;5.73;95.87;102099.56;4921816;29;20067;-44
2022/12/06 00:21:21;;;;;;;4.28;1.40;;;;;;;5.74;95.87;102098.47;4939100;29;20138;-44
2022/12/06 00:23:50;;;;;;;9.70;1.80;;;;;;;5.74;95.67;102097.66;4926601;29;20639;-41
2022/12/06 00:26:18;;;;;;;6.68;1.40;;;;;;;5.74;95.86;102094.91;4929605;29;20054;-41
2022/12/06 00:28:45;;;;;;;8.30;1.10;;;;;;;5.72;95.82;102092.41;4930082;29;20039;-44
2022/12/06 00:31:17;;;;;;;2.30;0.60;;;;;;;5.70;95.60;102089.13;4930287;29;20039;-41
2022/12/06 00:33:44;;;;;;;1.23;0.70;;;;;;;5.70;95.52;102078.16;4929289;29;20067;-41
2022/12/06 00:36:16;;;;;;;2.78;0.82;;;;;;;5.72;95.66;102091.63;4929318;29;20056;-47
2022/12/06 00:38:44;;;;;;;1.52;0.50;;;;;;;5.69;95.71;102082.00;4930216;29;20054;-41
2022/12/06 00:41:16;;;;;;;4.63;1.10;;;;;;;5.68;95.50;102085.03;4901362;29;20055;-41
2022/12/06 00:43:43;;;;;;;1.63;0.88;;;;;;;5.65;95.31;102089.16;4928722;29;20071;-46
2022/12/06 00:46:18;;;;;;;2.65;0.60;;;;;;;5.66;95.24;102084.47;4930195;29;20074;-42
2022/12/06 00:48:47;;;;;;;4.75;1.70;;;;;;;5.65;95.14;102080.91;4930597;29;20054;-41
2022/12/06 00:51:15;;;;;;;3.97;0.70;;;;;;;5.64;95.27;102086.69;4930225;29;20070;-41
2022/12/06 00:53:45;;;;;;;6.65;0.95;;;;;;;5.64;95.18;102089.44;4928865;29;20549;-42
2022/12/06 00:56:12;;;;;;;3.75;1.00;;;;;;;5.65;95.28;102089.16;4929657;29;20051;-41
2022/12/06 00:58:39;;;;;;;1.27;0.70;;;;;;;5.63;94.99;102076.78;4929331;29;20406;-42
2022/12/06 01:01:21;;;;;;;5.55;1.00;;;;;;;5.60;94.79;102089.16;4928791;29;20047;-41
2022/12/06 01:03:50;;;;;;;6.65;1.10;;;;;;;5.58;94.89;102085.06;4931037;29;20050;-41
2022/12/06 01:06:21;;;;;;;3.17;0.80;;;;;;;5.54;94.66;102082.88;4930049;29;20056;-43
2022/12/06 01:08:48;;;;;;;6.85;3.50;;;;;;;5.51;95.11;102091.66;4928245;29;20052;-44
2022/12/06 01:11:15;;;;;;;3.90;0.95;;;;;;;5.51;95.09;102080.66;4928802;29;20063;-43
2022/12/06 01:13:42;;;;;;;6.72;0.82;;;;;;;5.48;95.11;102089.47;4930501;29;20040;-41
2022/12/06 01:16:14;;;;;;;5.40;1.00;;;;;;;5.46;95.22;102088.94;4927808;29;20052;-41
2022/12/06 01:18:42;;;;;;;5.68;1.05;;;;;;;5.43;94.99;102086.72;4928925;29;20059;-40
2022/12/06 01:21:12;;;;;;;4.57;1.05;;;;;;;5.38;95.07;102075.75;4933520;29;20053;-45
2022/12/06 01:23:38;;;;;;;1.42;0.88;;;;;;;5.35;95.05;102083.72;4940242;29;20765;-43
2022/12/06 01:26:06;;;;;;;2.33;1.00;;;;;;;5.32;95.08;102082.34;4933303;29;20115;-41
2022/12/06 01:28:33;;;;;;;1.83;0.70;;;;;;;5.28;94.96;102084.03;4932488;29;20051;-41
2022/12/06 01:31:06;;;;;;;2.88;0.63;;;;;;;5.25;95.10;102081.84;4932640;29;20054;-41
2022/12/06 01:33:33;;;;;;;2.58;0.70;;;;;;;5.23;95.32;102078.53;4933400;29;20398;-41
2022/12/06 01:35:59;;;;;;;6.88;0.70;;;;;;;5.25;95.16;102081.84;4927820;29;20046;-42
2022/12/06 01:38:26;;;;;;;3.72;0.85;;;;;;;5.26;94.92;102083.50;4933607;29;20063;-44
2022/12/06 01:40:53;;;;;;;4.57;0.80;;;;;;;5.28;94.86;102075.78;4932415;29;20469;-42
2022/12/06 01:43:33;;;;;;;1.75;0.80;;;;;;;5.28;95.02;102080.44;4921965;29;20147;-41
2022/12/06 01:46:20;;;;;;;1.73;0.52;;;;;;;5.28;94.90;102086.78;4937529;29;20062;-41
2022/12/06 01:48:51;;;;;;;1.63;0.45;;;;;;;5.28;94.93;102075.78;4932574;29;20070;-42
2022/12/06 01:51:18;;;;;;;1.25;0.43;;;;;;;5.29;94.74;102087.59;4930888;29;20055;-41
2022/12/06 01:53:48;;;;;;;1.88;0.47;;;;;;;5.30;94.76;102084.56;4932738;29;20506;-41
2022/12/06 01:56:15;;;;;;;3.83;0.80;;;;;;;5.31;94.73;102086.22;4930482;29;20048;-41
2022/12/06 01:58:44;;;;;;;3.03;0.73;;;;;;;5.33;94.67;102085.94;4921639;29;20099;-41
2022/12/06 02:01:10;;;;;;;1.75;0.57;;;;;;;5.35;94.76;102078.22;4930781;29;20106;-43
2022/12/06 02:03:38;;;;;;;4.00;0.50;;;;;;;5.37;94.64;102078.81;4931916;29;20055;-40
2022/12/06 02:06:07;;;;;;;1.48;0.45;;;;;;;5.38;94.93;102084.00;4916932;29;20044;-41
2022/12/06 02:08:35;;;;;;;0.55;0.50;;;;;;;5.43;94.92;102075.75;4930013;29;20383;-42
2022/12/06 02:11:03;;;;;;;4.38;0.85;;;;;;;5.48;94.71;102091.41;4930378;29;20107;-42
2022/12/06 02:13:32;;;;;;;5.28;0.85;;;;;;;5.49;94.80;102082.88;4930305;29;20115;-41
2022/12/06 02:15:59;;;;;;;6.53;0.73;;;;;;;5.50;94.75;102078.22;4930366;29;20505;-41
2022/12/06 02:18:40;;;;;;;3.05;0.80;;;;;;;5.50;94.63;102079.03;4931082;29;20055;-41
2022/12/06 02:21:19;;;;;;;7.82;1.90;;;;;;;5.50;94.71;102079.03;4930466;29;20044;-44
2022/12/06 02:24:17;;;;;;;5.15;1.08;;;;;;;5.51;94.94;102079.84;4918355;29;20533;-49
2022/12/06 02:26:50;;;;;;;6.75;1.05;;;;;;;5.51;94.94;102069.69;4923744;29;20059;-43
2022/12/06 02:29:23;;;;;;;3.30;0.68;;;;;;;5.53;94.98;102066.69;4929168;29;20036;-43
2022/12/06 02:32:02;;;;;;;2.78;0.90;;;;;;;5.53;95.07;102063.94;4930012;29;20550;-40
2022/12/06 02:34:32;;;;;;;5.97;0.82;;;;;;;5.53;95.10;102067.47;4930935;29;20486;-42
2022/12/06 02:37:23;;;;;;;7.60;1.00;;;;;;;5.54;95.25;102068.31;4930120;29;20051;-42
2022/12/06 02:40:14;;;;;;;3.33;0.93;;;;;;;5.55;95.20;102058.97;4930947;29;20492;-42
2022/12/06 02:42:52;;;;;;;2.50;0.80;;;;;;;5.57;95.42;102064.16;4929847;29;20086;-44
2022/12/06 02:45:26;;;;;;;2.50;0.77;;;;;;;5.56;95.48;102060.59;4926286;29;20461;-45
2022/12/06 02:47:57;;;;;;;8.27;1.52;;;;;;;5.57;95.42;102050.44;4926765;29;20043;-41
2022/12/06 02:50:30;;;;;;;2.63;0.75;;;;;;;5.56;95.55;102063.34;4930575;29;20043;-41
2022/12/06 02:53:00;;;;;;;2.30;0.95;;;;;;;5.57;95.71;102058.69;4931452;29;20512;-42
2022/12/06 02:55:29;;;;;;;2.55;0.70;;;;;;;5.58;95.77;102055.66;4930368;29;20098;-44
2022/12/06 02:57:56;;;;;;;6.22;1.48;;;;;;;5.58;95.86;102057.59;4930460;29;20048;-41
2022/12/06 03:03:09;;;;;;;3.30;1.02;;;;;;;5.58;96.06;102060.34;4926389;29;20063;-42
2022/12/06 03:05:48;;;;;;;2.10;1.20;;;;;;;5.60;96.34;102058.13;4929504;29;20138;-46
2022/12/06 03:08:30;;;;;;;4.43;0.73;;;;;;;5.58;96.18;102057.59;4931269;29;20055;-42
2022/12/06 03:11:00;;;;;;;2.72;0.80;;;;;;;5.55;96.37;102053.47;4928978;29;20050;-42
2022/12/06 03:13:38;;;;;;;9.73;1.30;;;;;;;5.53;96.32;102061.19;4930839;29;20044;-42
2022/12/06 03:16:16;;;;;;;3.70;0.88;;;;;;;5.51;96.36;102041.38;4928252;29;20405;-42
2022/12/06 03:18:52;;;;;;;6.32;1.50;;;;;;;5.50;96.40;102046.09;4931012;29;20454;-41
2022/12/06 03:21:26;;;;;;;6.18;0.90;;;;;;;5.48;96.36;102042.78;4929439;29;20056;-43
2022/12/06 03:23:53;;;;;;;4.40;1.40;;;;;;;5.48;96.52;102036.47;4929550;29;20063;-41
2022/12/06 03:26:26;;;;;;;4.25;0.90;;;;;;;5.46;96.48;102027.69;4920809;29;20553;-43
2022/12/06 03:28:56;;;;;;;1.15;0.63;;;;;;;5.44;96.44;102041.69;4928542;29;20051;-44
2022/12/06 03:31:26;;;;;;;5.22;0.80;;;;;;;5.40;96.47;102034.31;4929071;29;20044;-43
2022/12/06 03:34:01;;;;;;;3.22;1.15;;;;;;;5.39;96.25;102036.22;4929814;29;20052;-41
2022/12/06 03:36:30;;;;;;;2.53;0.82;;;;;;;5.40;95.89;102042.56;4930541;29;20054;-41
2022/12/06 03:39:01;;;;;;;6.05;0.70;;;;;;;5.39;96.28;102035.41;4929184;29;20060;-45
2022/12/06 03:41:36;;;;;;;5.03;0.95;;;;;;;5.39;96.30;102041.72;4929771;29;20107;-46
2022/12/06 03:44:03;;;;;;;5.20;1.17;;;;;;;5.39;96.03;102033.47;4930773;29;20111;-43
2022/12/06 03:46:34;;;;;;;2.50;0.88;;;;;;;5.39;96.16;102035.41;4928391;29;20044;-42
2022/12/06 03:49:09;;;;;;;1.63;0.70;;;;;;;5.39;96.09;102028.00;4924856;29;20044;-41
2022/12/06 03:51:38;;;;;;;5.85;1.55;;;;;;;5.38;96.25;102037.31;4929341;29;20057;-41
2022/12/06 03:54:06;;;;;;;5.40;0.88;;;;;;;5.39;96.12;102030.72;4930214;29;20086;-41
2022/12/06 03:56:35;;;;;;;3.35;0.77;;;;;;;5.41;95.93;102042.25;4927911;29;20151;-42
2022/12/06 03:59:10;;;;;;;1.83;0.73;;;;;;;5.41;95.90;102042.25;4927161;29;20066;-43
2022/12/06 04:01:38;;;;;;;2.55;1.02;;;;;;;5.40;95.66;102040.59;4928859;29;20070;-41
2022/12/06 04:04:05;;;;;;;1.95;0.60;;;;;;;5.40;95.54;102043.34;4928544;29;20054;-42
2022/12/06 04:06:32;;;;;;;2.53;0.50;;;;;;;5.40;95.27;102045.28;4929351;29;20048;-41
2022/12/06 04:11:45;;;;;;;3.63;0.60;;;;;;;5.41;94.90;102055.16;4930452;29;20588;-42
2022/12/06 04:14:12;;;;;;;2.25;1.30;;;;;;;5.41;94.51;102047.75;4928526;29;20056;-42
2022/12/06 04:19:25;;;;;;;1.85;0.75;;;;;;;5.41;93.94;102058.72;4919658;29;20051;-45
2022/12/06 04:24:37;;;;;;;2.00;0.70;;;;;;;5.43;93.43;102055.69;4929614;29;20060;-42
2022/12/06 04:40:50;;;;;;;2.85;0.70;;;;;;;5.38;92.22;102045.56;4930371;29;20052;-41
2022/12/06 04:46:01;;;;;;;2.38;0.82;;;;;;;5.35;91.78;102026.88;4924754;29;20047;-45
2022/12/06 04:48:29;;;;;;;5.35;1.35;;;;;;;5.36;91.83;102036.78;4929227;29;20169;-43
2022/12/06 04:50:56;;;;;;;2.25;0.80;;;;;;;5.34;91.61;102032.66;4930039;29;20134;-41
2022/12/06 04:53:23;;;;;;;2.50;0.50;;;;;;;5.31;91.35;102034.06;4928586;29;20523;-43
2022/12/06 04:55:52;;;;;;;2.42;0.82;;;;;;;5.32;90.92;102027.44;4912136;29;20540;-41
2022/12/06 04:58:19;;;;;;;3.08;0.50;;;;;;;5.32;90.88;102035.69;4908181;29;20414;-44
2022/12/06 05:00:45;;;;;;;2.55;0.55;;;;;;;5.31;90.62;102034.06;4927764;29;20118;-43
2022/12/06 05:03:13;;;;;;;2.58;0.40;;;;;;;5.32;90.32;102038.41;4927486;29;20067;-45
2022/12/06 05:05:41;;;;;;;1.40;0.70;;;;;;;5.32;90.06;102032.94;4938107;29;20047;-42
2022/12/06 05:08:08;;;;;;;1.55;0.35;;;;;;;5.33;90.22;102031.84;4928555;29;20155;-43
2022/12/06 05:10:36;;;;;;;2.08;0.52;;;;;;;5.33;90.03;102028.25;4928832;29;20063;-41
2022/12/06 05:13:03;;;;;;;4.90;0.50;;;;;;;5.32;89.67;102026.63;4929653;29;20047;-42
2022/12/06 05:15:30;;;;;;;1.92;0.60;;;;;;;5.33;89.46;102031.84;4928424;29;20047;-47
2022/12/06 05:17:57;;;;;;;2.85;1.08;;;;;;;5.32;89.51;102026.63;4929895;29;20137;-41
2022/12/06 05:20:24;;;;;;;1.42;0.50;;;;;;;5.31;89.21;102042.28;4929471;29;20106;-41
2022/12/06 05:22:50;;;;;;;0.90;0.45;;;;;;;5.30;89.19;102034.31;4929838;29;20135;-44
2022/12/06 05:25:19;;;;;;;4.43;0.40;;;;;;;5.31;88.82;102033.22;4929208;29;20047;-41
2022/12/06 05:27:46;;;;;;;2.65;0.38;;;;;;;5.32;88.76;102038.41;4929369;29;20087;-46
2022/12/06 05:30:13;;;;;;;2.00;0.57;;;;;;;5.34;88.59;102038.16;4928881;29;20409;-43
2022/12/06 05:32:39;;;;;;;5.20;2.15;;;;;;;5.34;88.17;102033.50;4926096;29;20044;-43
2022/12/06 05:35:07;;;;;;;4.03;0.77;;;;;;;5.36;88.07;102031.28;4929644;29;20502;-41
2022/12/06 05:37:33;;;;;;;1.77;0.55;;;;;;;5.36;88.02;102022.22;4912349;29;20058;-41
2022/12/06 05:40:00;;;;;;;5.93;0.40;;;;;;;5.35;87.76;102015.91;4927909;29;20051;-43
2022/12/06 05:42:27;;;;;;;1.17;0.30;;;;;;;5.34;87.44;102019.75;4928313;29;20044;-41
2022/12/06 05:44:54;;;;;;;0.73;0.30;;;;;;;5.34;87.39;102022.50;4921477;29;20063;-41
2022/12/06 05:47:20;;;;;;;2.78;1.17;;;;;;;5.35;87.17;102024.13;4926256;29;20060;-45
2022/12/06 05:49:47;;;;;;;0.60;0.30;;;;;;;5.36;87.13;102027.72;4929315;29;20042;-41
2022/12/06 05:52:14;;;;;;;1.45;0.30;;;;;;;5.35;86.80;102024.13;4928496;29;20058;-42
2022/12/06 05:54:41;;;;;;;1.38;0.40;;;;;;;5.36;86.70;102027.72;4911039;29;20589;-42
2022/12/06 05:57:07;;;;;;;0.43;0.40;;;;;;;5.37;86.26;102016.47;4924278;29;20051;-43
2022/12/06 05:59:34;;;;;;;1.00;0.28;;;;;;;5.39;86.02;102021.66;4926672;29;20398;-41
2022/12/06 06:02:01;;;;;;;1.58;0.50;;;;;;;5.40;85.71;102015.88;4926367;29;20047;-43
2022/12/06 06:04:27;;;;;;;2.85;0.30;;;;;;;5.40;85.56;102006.84;4927160;29;20054;-42
2022/12/06 06:06:54;;;;;;;3.50;0.40;;;;;;;5.38;85.47;102020.84;4929721;29;20107;-47
2022/12/06 06:09:22;;;;;;;3.72;0.40;;;;;;;5.37;85.17;102018.38;4930091;29;20050;-42
2022/12/06 06:11:48;;;;;;;1.70;0.55;;;;;;;5.36;84.68;102017.56;4928908;29;20048;-41
2022/12/06 06:14:15;;;;;;;0.63;0.45;;;;;;;5.38;84.47;102009.84;4924320;29;20050;-42
2022/12/06 06:16:42;;;;;;;0.85;0.40;;;;;;;5.38;84.35;102020.84;4930451;29;20434;-45
2022/12/06 06:19:09;;;;;;;1.77;0.40;;;;;;;5.36;83.98;102020.31;4932409;29;20091;-45
2022/12/06 06:21:35;;;;;;;1.75;0.65;;;;;;;5.35;83.66;102024.13;4930835;29;20052;-42
2022/12/06 06:24:02;;;;;;;0.60;0.30;;;;;;;5.34;83.87;102025.25;4930816;29;20393;-41
2022/12/06 06:26:29;;;;;;;2.22;0.60;;;;;;;5.34;83.53;102027.19;4931958;29;20103;-42
2022/12/06 06:28:56;;;;;;;0.98;0.40;;;;;;;5.29;83.18;102028.03;4931281;29;20055;-45
2022/12/06 06:31:22;;;;;;;0.73;0.35;;;;;;;5.29;83.29;102033.50;4930675;29;20051;-41
2022/12/06 06:33:49;;;;;;;3.10;0.40;;;;;;;5.29;83.14;102028.03;4927810;29;20054;-42
2022/12/06 06:36:16;;;;;;;2.95;1.38;;;;;;;5.30;82.98;102035.13;4931299;29;20513;-42
2022/12/06 06:38:42;;;;;;;1.13;0.30;;;;;;;5.30;82.75;102037.88;4929908;29;20060;-43
2022/12/06 06:41:11;;;;;;;0.82;0.40;;;;;;;5.31;82.65;102031.31;4931275;29;20053;-41
2022/12/06 06:43:37;;;;;;;1.17;0.43;;;;;;;5.32;82.36;102023.91;4932217;29;20080;-41
2022/12/06 06:46:05;;;;;;;2.45;0.40;;;;;;;5.30;82.11;102034.31;4914152;29;20375;-41
2022/12/06 06:48:35;;;;;;;3.13;0.85;;;;;;;5.29;82.18;102032.69;4930622;29;20051;-40
2022/12/06 06:51:04;;;;;;;1.55;0.50;;;;;;;5.29;82.04;102047.25;4931611;29;20051;-42
2022/12/06 06:53:31;;;;;;;0.95;0.32;;;;;;;5.28;81.73;102042.84;4930163;29;20053;-41
2022/12/06 06:55:58;;;;;;;2.17;0.40;;;;;;;5.29;81.83;102038.19;4928315;29;20414;-41
2022/12/06 06:58:25;;;;;;;2.70;0.60;;;;;;;5.29;81.47;102038.19;4932095;29;20044;-42
2022/12/06 07:00:56;;;;;;;0.28;0.28;;;;;;;5.30;81.43;102040.63;4913405;29;20044;-41
2022/12/06 07:03:24;;;;;;;0.60;0.30;;;;;;;5.31;81.29;102039.53;4932010;29;20036;-41
2022/12/06 07:05:57;;;;;;;1.98;0.20;;;;;;;5.32;81.21;102040.38;4930851;29;20055;-41
2022/12/06 07:08:26;;;;;;;1.15;0.30;;;;;;;5.30;81.13;102043.38;4931493;29;20039;-44
2022/12/06 07:10:53;;;;;;;1.52;0.43;;;;;;;5.29;81.20;102038.19;4931676;29;20090;-42
2022/12/06 07:13:21;;;;;;;0.82;0.50;;;;;;;5.28;80.98;102033.78;4930354;29;20051;-41
2022/12/06 07:15:48;;;;;;;0.43;0.20;;;;;;;5.26;80.94;102042.31;4931688;29;20058;-41
2022/12/06 07:18:18;;;;;;;1.15;0.22;;;;;;;5.25;81.03;102037.91;4931212;29;20457;-41
2022/12/06 07:20:46;;;;;;;0.68;0.20;;;;;;;5.28;80.96;102037.34;4928126;29;20047;-43
2022/12/06 07:23:14;;;;;;;1.20;0.30;;;;;;;5.29;80.68;102039.00;4930739;29;20043;-40
2022/12/06 07:25:41;;;;;;;3.25;0.30;;;;;;;5.30;80.83;102034.31;4931264;29;20403;-45
2022/12/06 07:28:08;;;;;;;1.88;0.40;;;;;;;5.31;80.85;102045.03;4931560;29;20079;-40
2022/12/06 07:30:34;;;;;;;1.13;0.50;;;;;;;5.29;80.92;102039.00;4924852;29;20043;-41
2022/12/06 07:33:01;;;;;;;2.72;0.65;;;;;;;5.29;81.27;102041.75;4928245;29;21037;-41
2022/12/06 07:35:28;;;;;;;1.30;0.50;;;;;;;5.28;80.94;102040.09;4929856;29;20040;-41
2022/12/06 07:38:14;;;;;;;3.53;0.73;;;;;;;5.28;81.18;102031.84;4913367;29;20095;-41
2022/12/06 07:40:41;;;;;;;3.70;0.52;;;;;;;5.27;80.89;102032.94;4930527;29;20052;-43
2022/12/06 07:46:13;;;;;;;1.40;0.40;;;;;;;5.19;81.19;102033.50;4931553;29;20413;-40
2022/12/06 07:48:39;;;;;;;1.73;0.20;;;;;;;5.13;80.96;102022.84;4918227;29;20088;-42
2022/12/06 07:51:06;;;;;;;0.93;0.40;;;;;;;5.06;81.16;102028.59;4931213;29;20434;-45
2022/12/06 07:53:33;;;;;;;2.00;0.25;;;;;;;4.99;81.27;102030.00;4931147;29;20150;-49
2022/12/06 07:56:06;;;;;;;2.85;0.60;;;;;;;4.90;81.02;102018.75;4931157;29;20040;-40
2022/12/06 07:58:33;;;;;;;0.38;0.38;;;;;;;4.83;81.43;102031.94;4926497;29;20151;-40
2022/12/06 08:01:02;;;;;;;0.95;0.50;;;;;;;4.71;81.50;102026.72;4922437;29;20067;-41
2022/12/06 08:03:30;;;;;;;1.73;0.60;;;;;;;4.68;81.60;102023.72;4928930;29;20048;-41
2022/12/06 08:05:56;;;;;;;0.82;0.30;;;;;;;4.61;81.58;102034.13;4921741;29;20051;-41
2022/12/06 08:08:23;;;;;;;1.63;0.50;;;;;;;4.54;82.03;102042.63;4930842;29;20040;-41
2022/12/06 08:10:58;;;;;;;3.95;0.70;;;;;;;4.51;82.35;102031.38;4928978;29;20056;-44
2022/12/06 08:13:25;;;;;;;2.97;0.85;;;;;;;4.50;82.42;102030.53;4926547;29;20080;-46
2022/12/06 08:15:52;;;;;;;1.30;0.60;;;;;;;4.51;82.58;102023.16;4929035;29;20066;-40
2022/12/06 08:18:19;;;;;;;2.83;0.88;;;;;;;4.55;82.83;102033.31;4928606;29;20517;-41
2022/12/06 08:20:45;;;;;;;2.05;0.82;;;;;;;4.57;82.82;102035.78;4928674;29;20924;-40
2022/12/06 08:23:12;;;;;;;1.92;0.30;;;;;;;4.63;82.78;102040.19;4929722;29;20051;-42
2022/12/06 08:25:39;;;;;;;2.22;0.60;;;;;;;4.66;82.92;102045.13;4929426;29;20356;-41
2022/12/06 08:28:06;;;;;;;3.75;1.20;;;;;;;4.68;82.94;102046.50;4929921;29;20067;-40
2022/12/06 08:30:33;;;;;;;1.88;0.70;;;;;;;4.71;82.84;102053.34;4928019;29;20070;-41
2022/12/06 08:32:59;;;;;;;4.05;0.90;;;;;;;4.71;83.28;102045.91;4908959;29;20583;-41
2022/12/06 08:35:26;;;;;;;4.80;0.85;;;;;;;4.70;83.13;102051.69;4930328;29;20050;-42
2022/12/06 08:37:53;;;;;;;4.22;0.70;;;;;;;4.71;83.12;102054.16;4930819;29;20054;-44
2022/12/06 08:40:19;;;;;;;6.20;0.70;;;;;;;4.72;83.21;102054.97;4927589;29;20506;-41
2022/12/06 08:42:46;;;;;;;3.00;0.50;;;;;;;4.71;83.83;102047.84;4931934;29;20134;-41
2022/12/06 08:45:13;;;;;;;0.98;0.40;;;;;;;4.73;83.64;102053.88;4929960;29;20060;-40
2022/12/06 08:47:39;;;;;;;1.63;0.57;;;;;;;4.74;83.25;102067.31;4931016;29;20048;-41
2022/12/06 08:50:06;;;;;;;2.53;0.70;;;;;;;4.77;83.93;102058.53;4931372;29;20059;-46
2022/12/06 08:52:33;;;;;;;2.42;0.88;;;;;;;4.83;83.99;102056.63;4932184;29;20131;-46
2022/12/06 08:55:00;;;;;;;1.13;0.80;;;;;;;4.85;84.25;102063.47;4928078;29;20422;-42
2022/12/06 08:57:27;;;;;;;0.88;0.70;;;;;;;4.88;84.10;102070.34;4923958;29;20048;-41
2022/12/06 08:59:54;;;;;;;2.47;1.05;;;;;;;4.91;84.45;102064.31;4926317;29;20055;-42
2022/12/06 09:02:21;;;;;;;2.30;0.90;;;;;;;4.93;84.42;102073.06;4923633;29;20053;-43
2022/12/06 09:04:50;;;;;;;0.80;0.68;;;;;;;4.94;84.59;102066.50;4937127;29;20581;-44
2022/12/06 09:07:17;;;;;;;4.50;1.02;;;;;;;4.91;85.00;102070.63;4930671;29;20063;-41
2022/12/06 09:09:45;;;;;;;2.53;0.82;;;;;;;4.87;84.82;102077.75;4918243;29;20056;-43
2022/12/06 09:12:12;;;;;;;4.35;1.42;;;;;;;4.83;85.06;102075.81;4910700;29;20070;-41
2022/12/06 09:14:39;;;;;;;1.92;1.00;;;;;;;4.80;85.21;102079.13;4929872;29;20067;-42
2022/12/06 09:17:06;;;;;;;4.63;0.90;;;;;;;4.76;85.46;102078.03;4927148;29;20447;-46
2022/12/06 09:19:33;;;;;;;1.75;1.20;;;;;;;4.80;85.77;102090.91;4928996;29;20052;-41
2022/12/06 09:22:00;;;;;;;1.33;0.70;;;;;;;4.84;86.07;102083.78;4931212;29;20051;-40
2022/12/06 09:24:27;;;;;;;0.75;0.65;;;;;;;4.88;85.97;102087.63;4929411;29;20052;-46
2022/12/06 09:26:54;;;;;;;10.85;1.80;;;;;;;4.91;86.30;102081.59;4930095;29;20768;-47
2022/12/06 09:29:21;;;;;;;4.30;1.80;;;;;;;4.97;86.33;102090.66;4929483;29;20064;-43
2022/12/06 09:31:48;;;;;;;12.48;2.33;;;;;;;5.02;86.40;102076.94;4929974;29;20159;-41
2022/12/06 09:34:16;;;;;;;9.27;2.22;;;;;;;5.08;86.60;102081.31;4931182;29;20044;-41
2022/12/06 09:36:48;;;;;;;5.88;2.28;;;;;;;5.15;86.53;102092.00;4928894;29;20162;-46
2022/12/06 09:39:17;;;;;;;;;;;;;;;5.20;86.40;102086.50;4932113;29;20052;-41
2022/12/06 09:42:14;;;;;;;8.93;2.30;;;;;;;5.23;86.28;102096.94;4932304;29;19922;-40
2022/12/06 09:45:09;;;;;;;4.78;1.50;;;;;;;5.27;86.38;102081.56;4934668;29;20044;-41
2022/12/06 09:47:57;;;;;;;3.15;1.58;;;;;;;5.31;86.61;102088.13;4926964;29;20047;-41
2022/12/06 09:50:26;;;;;;;2.08;1.70;;;;;;;5.31;86.43;102086.22;4922432;29;20044;-41
2022/12/06 09:52:59;;;;;;;3.30;1.30;;;;;;;5.33;86.69;102086.75;4932844;29;20070;-41
2022/12/06 09:55:40;;;;;;;;;;;;;;;5.36;86.67;102090.88;4929648;29;20106;-41
2022/12/06 09:58:38;;;;;;;2.28;1.13;;;;;;;5.39;86.75;102098.56;4927777;29;20034;-43
2022/12/06 10:01:23;;;;;;;3.35;0.80;;;;;;;5.42;86.88;102098.84;4924973;29;20052;-46
2022/12/06 10:04:06;;;;;;;4.43;1.30;;;;;;;5.49;86.78;102102.09;4926958;29;20054;-41
2022/12/06 10:06:43;;;;;;;4.65;1.08;;;;;;;5.55;87.02;102097.44;4933543;29;20406;-41
2022/12/06 10:09:31;;;;;;;0.93;0.70;;;;;;;5.61;87.01;102106.47;4934250;29;20047;-41
2022/12/06 10:12:35;;;;;;;2.42;1.02;;;;;;;5.67;87.03;102099.84;4931411;29;20067;-46
2022/12/06 10:15:31;;;;;;;2.45;1.15;;;;;;;5.74;86.99;102105.88;4930622;29;20055;-41
2022/12/06 10:18:16;;;;;;;3.10;1.02;;;;;;;5.76;86.93;102099.00;4916776;29;20063;-41
2022/12/06 10:21:03;;;;;;;4.82;1.15;;;;;;;5.81;86.99;102107.22;4929549;29;20058;-44
2022/12/06 10:23:56;;;;;;;4.05;1.05;;;;;;;5.85;86.77;102113.03;4932584;29;20126;-41
2022/12/06 10:26:52;;;;;;;1.70;0.90;;;;;;;5.84;86.98;102108.59;4933130;29;20039;-40
2022/12/06 10:29:22;;;;;;;4.13;1.02;;;;;;;5.86;87.21;102106.41;4932630;29;20102;-40
2022/12/06 10:31:55;;;;;;;1.30;0.82;;;;;;;5.89;87.02;102097.63;4930348;29;20047;-40
2022/12/06 10:34:48;;;;;;;3.45;0.60;;;;;;;5.93;87.02;102109.72;4931373;29;20418;-41
2022/12/06 10:37:24;;;;;;;3.58;1.00;;;;;;;5.92;86.99;102113.56;4931759;29;20054;-40
2022/12/06 10:40:11;;;;;;;2.17;0.60;;;;;;;5.93;87.10;102105.00;4932880;29;21289;-40
2022/12/06 10:42:43;;;;;;;1.13;0.47;;;;;;;5.94;87.21;102090.16;4931497;29;20039;-41
2022/12/06 10:48:19;;;;;;;2.95;0.50;;;;;;;5.97;87.18;102094.28;4928115;29;20070;-42
2022/12/06 10:50:54;;;;;;;2.28;0.40;;;;;;;6.02;86.91;102092.34;4932973;29;20058;-40
2022/12/06 10:53:30;;;;;;;0.40;0.30;;;;;;;6.09;86.95;102092.00;4911165;29;20056;-40
2022/12/06 10:56:06;;;;;;;1.50;0.57;;;;;;;6.15;86.77;102101.91;4924125;29;20058;-46
2022/12/06 10:58:45;;;;;;;2.17;0.43;;;;;;;6.20;86.70;102090.88;4933628;29;20079;-41
2022/12/06 11:01:24;;;;;;;2.10;1.65;;;;;;;6.26;86.66;102092.50;4929810;29;20060;-40
2022/12/06 11:04:01;;;;;;;4.80;0.50;;;;;;;6.34;86.62;102102.06;4932546;29;20040;-44
2022/12/06 11:06:44;;;;;;;1.55;0.47;;;;;;;6.29;86.32;102097.44;4932089;29;20051;-41
2022/12/06 11:09:30;;;;;;;2.45;0.60;;;;;;;6.23;86.31;102101.31;4930985;29;20115;-44
2022/12/06 11:11:58;;;;;;;1.05;0.60;;;;;;;6.17;86.08;102105.19;4931813;29;20062;-46
2022/12/06 11:14:53;;;;;;;4.93;0.70;;;;;;;6.05;86.28;102104.69;4933979;29;20410;-41
2022/12/06 11:17:23;;;;;;;2.03;0.68;;;;;;;6.02;86.44;102105.25;4927981;29;20066;-42
2022/12/06 11:19:55;;;;;;;1.95;0.90;;;;;;;6.06;86.62;102103.59;4930889;29;20071;-42
2022/12/06 11:23:09;;;;;;;5.82;2.95;;;;;;;6.24;86.65;102102.13;4928581;29;20062;-40
2022/12/06 11:25:59;;;;;;;1.38;0.82;;;;;;;6.35;86.42;102090.81;4929242;29;20051;-40
2022/12/06 11:28:37;;;;;;;5.88;1.88;;;;;;;6.39;86.62;102088.28;4932615;29;20052;-41
2022/12/06 11:31:30;;;;;;;1.38;0.90;;;;;;;6.34;86.49;102083.63;4927794;29;20062;-40
2022/12/06 11:33:58;;;;;;;6.53;1.00;;;;;;;6.33;86.77;102092.19;4930180;29;20047;-40
2022/12/06 11:36:25;;;;;;;3.72;0.80;;;;;;;6.32;86.88;102094.13;4928298;29;20058;-41
2022/12/06 11:38:52;;;;;;;3.40;1.10;;;;;;;6.34;87.27;102094.66;4931759;29;20425;-40
2022/12/06 11:41:26;;;;;;;2.20;0.90;;;;;;;6.34;87.17;102099.31;4932412;29;20059;-40
2022/12/06 11:43:55;;;;;;;1.33;0.98;;;;;;;6.32;87.12;102090.53;4932684;29;20040;-43
2022/12/06 11:46:22;;;;;;;4.47;0.98;;;;;;;6.30;87.26;102092.75;4928655;29;20490;-40
2022/12/06 11:48:50;;;;;;;4.97;0.70;;;;;;;6.29;87.34;102085.59;4932210;29;20405;-43
2022/12/06 11:51:23;;;;;;;2.33;1.13;;;;;;;6.28;87.51;102084.78;4931507;29;20043;-40
2022/12/06 11:53:53;;;;;;;1.73;0.93;;;;;;;6.26;87.48;102084.25;4930442;29;20425;-40
2022/12/06 11:56:26;;;;;;;1.77;0.77;;;;;;;6.21;87.26;102084.28;4932033;29;20319;-46
2022/12/06 11:59:06;;;;;;;1.40;0.90;;;;;;;6.15;87.54;102088.16;4929820;29;20094;-40
2022/12/06 12:01:43;;;;;;;5.95;1.38;;;;;;;6.11;87.76;102095.31;4929718;29;20399;-41
2022/12/06 12:04:25;;;;;;;4.35;1.33;;;;;;;6.06;87.76;102095.34;4935593;29;20498;-41
2022/12/06 12:07:01;;;;;;;5.90;1.75;;;;;;;5.96;87.96;102090.72;4927874;29;20465;-40
2022/12/06 12:09:34;;;;;;;2.45;1.50;;;;;;;5.92;88.23;102086.88;4931137;29;20056;-40
2022/12/06 12:12:11;;;;;;;3.75;1.63;;;;;;;5.84;88.29;102089.38;4930510;29;20047;-42
2022/12/06 12:14:39;;;;;;;2.90;1.08;;;;;;;5.82;88.28;102092.41;4930710;29;20055;-41
2022/12/06 12:17:18;;;;;;;1.73;1.58;;;;;;;5.80;88.49;102083.59;4931053;29;20737;-41
2022/12/06 12:19:57;;;;;;;4.28;1.50;;;;;;;5.80;88.56;102083.59;4931414;29;20067;-40
2022/12/06 12:22:34;;;;;;;2.63;1.52;;;;;;;5.78;88.55;102082.22;4931111;29;20428;-41
2022/12/06 12:25:26;;;;;;;3.15;1.58;;;;;;;5.76;88.68;102071.53;4929561;29;20047;-42
2022/12/06 12:27:57;;;;;;;4.60;1.48;;;;;;;5.76;88.71;102070.72;4922822;29;20059;-46